createdAt,value
2023-01-20T00:00:18.073Z,100.00
2023-01-20T00:02:48.795Z,100.00
2023-01-20T00:05:18.179Z,100.00
2023-01-20T00:07:47.335Z,100.00
2023-01-20T00:10:16.920Z,100.00
2023-01-20T00:12:46.129Z,100.00
2023-01-20T00:15:15.889Z,100.00
2023-01-20T00:17:45.167Z,100.00
2023-01-20T00:20:16.310Z,100.00
2023-01-20T00:22:45.744Z,100.00
2023-01-20T00:25:15.939Z,100.00
2023-01-20T00:27:46.744Z,100.00
2023-01-20T00:30:16.557Z,100.00
2023-01-20T00:32:45.862Z,100.00
2023-01-20T00:35:16.802Z,100.00
2023-01-20T00:37:45.982Z,100.00
2023-01-20T00:40:15.645Z,100.00
2023-01-20T00:42:44.933Z,100.00
2023-01-20T00:45:14.240Z,100.00
2023-01-20T00:47:43.686Z,100.00
2023-01-20T00:50:14.875Z,100.00
2023-01-20T00:52:45.650Z,100.00
2023-01-20T00:55:15.405Z,100.00
2023-01-20T00:57:44.736Z,100.00
2023-01-20T01:00:14.984Z,100.00
2023-01-20T01:02:46.309Z,100.00
2023-01-20T01:05:15.785Z,100.00
2023-01-20T01:07:46.670Z,100.00
2023-01-20T01:10:16.256Z,100.00
2023-01-20T01:12:45.470Z,100.00
2023-01-20T01:15:15.460Z,100.00
2023-01-20T01:17:45.172Z,100.00
2023-01-20T01:20:15.365Z,100.00
2023-01-20T01:22:45.916Z,100.00
2023-01-20T01:25:15.487Z,100.00
2023-01-20T01:27:45.471Z,100.00
2023-01-20T01:30:15.259Z,100.00
2023-01-20T01:32:44.528Z,100.00
2023-01-20T01:35:13.975Z,100.00
2023-01-20T01:37:43.304Z,100.00
2023-01-20T01:40:14.386Z,100.00
2023-01-20T01:42:43.675Z,100.00
2023-01-20T01:45:34.250Z,100.00
2023-01-20T01:48:10.301Z,100.00
2023-01-20T01:50:45.964Z,100.00
2023-01-20T01:53:16.558Z,100.00
2023-01-20T01:55:52.509Z,100.00
2023-01-20T01:58:28.345Z,100.00
2023-01-20T02:00:57.538Z,100.00
2023-01-20T02:03:34.993Z,100.00
2023-01-20T02:06:05.847Z,100.00
2023-01-20T02:08:36.173Z,100.00
2023-01-20T02:11:09.962Z,100.00
2023-01-20T02:13:39.152Z,100.00
2023-01-20T02:16:16.719Z,100.00
2023-01-20T02:19:02.987Z,100.00
2023-01-20T02:22:09.966Z,100.00
2023-01-20T02:25:25.185Z,100.00
2023-01-20T02:28:45.088Z,100.00
2023-01-20T02:32:02.610Z,100.00
2023-01-20T02:34:37.987Z,100.00
2023-01-20T02:37:15.660Z,100.00
2023-01-20T02:39:56.755Z,100.00
2023-01-20T02:42:33.668Z,100.00
2023-01-20T02:45:10.273Z,100.00
2023-01-20T02:47:50.762Z,100.00
2023-01-20T02:50:30.274Z,100.00
2023-01-20T02:53:02.650Z,100.00
2023-01-20T02:55:39.135Z,100.00
2023-01-20T02:58:13.282Z,100.00
2023-01-20T03:00:49.526Z,100.00
2023-01-20T03:03:25.513Z,100.00
2023-01-20T03:05:59.931Z,100.00
2023-01-20T03:08:33.043Z,100.00
2023-01-20T03:11:07.275Z,100.00
2023-01-20T03:13:42.992Z,100.00
2023-01-20T03:16:15.590Z,100.00
2023-01-20T03:18:45.108Z,100.00
2023-01-20T03:21:15.806Z,100.00
2023-01-20T03:23:48.248Z,100.00
2023-01-20T03:26:20.238Z,100.00
2023-01-20T03:28:50.616Z,100.00
2023-01-20T03:31:23.461Z,100.00
2023-01-20T03:33:55.413Z,100.00
2023-01-20T03:36:29.213Z,100.00
2023-01-20T03:39:01.840Z,100.00
2023-01-20T03:41:41.735Z,100.00
2023-01-20T03:44:20.475Z,100.00
2023-01-20T03:46:56.920Z,100.00
2023-01-20T03:49:35.092Z,100.00
2023-01-20T03:52:12.494Z,100.00
2023-01-20T03:54:49.852Z,100.00
2023-01-20T03:57:23.555Z,100.00
2023-01-20T03:59:54.787Z,100.00
2023-01-20T04:02:25.194Z,100.00
2023-01-20T04:04:55.840Z,100.00
2023-01-20T04:07:27.862Z,100.00
2023-01-20T04:10:04.023Z,100.00
2023-01-20T04:12:34.518Z,100.00
2023-01-20T04:15:03.779Z,100.00
2023-01-20T04:17:35.171Z,100.00
2023-01-20T04:20:10.517Z,100.00
2023-01-20T04:22:50.375Z,100.00
2023-01-20T04:25:30.979Z,100.00
2023-01-20T04:28:00.153Z,100.00
2023-01-20T04:30:29.648Z,100.00
2023-01-20T04:32:58.892Z,100.00
2023-01-20T04:35:28.225Z,100.00
2023-01-20T04:37:59.220Z,100.00
2023-01-20T04:40:28.568Z,100.00
2023-01-20T04:42:57.759Z,100.00
2023-01-20T04:45:27.161Z,100.00
2023-01-20T04:47:56.282Z,100.00
2023-01-20T04:50:25.381Z,100.00
2023-01-20T04:52:56.713Z,100.00
2023-01-20T04:55:27.772Z,100.00
2023-01-20T04:57:56.883Z,100.00
2023-01-20T05:00:26.636Z,100.00
2023-01-20T05:02:59.195Z,100.00
2023-01-20T05:05:28.389Z,100.00
2023-01-20T05:07:59.523Z,100.00
2023-01-20T05:10:30.106Z,100.00
2023-01-20T05:12:59.257Z,100.00
2023-01-20T05:15:29.303Z,100.00
2023-01-20T05:17:58.549Z,100.00
2023-01-20T05:20:27.633Z,100.00
2023-01-20T05:22:56.725Z,100.00
2023-01-20T05:25:25.923Z,100.00
2023-01-20T05:27:56.498Z,100.00
2023-01-20T05:30:25.631Z,100.00
2023-01-20T05:32:54.882Z,100.00
2023-01-20T05:35:24.126Z,100.00
2023-01-20T05:37:57.089Z,100.00
2023-01-20T05:40:26.140Z,100.00
2023-01-20T05:43:00.486Z,100.00
2023-01-20T05:45:30.243Z,100.00
2023-01-20T05:48:00.600Z,100.00
2023-01-20T05:50:30.904Z,100.00
2023-01-20T05:53:00.470Z,100.00
2023-01-20T05:55:29.551Z,100.00
2023-01-20T05:58:05.208Z,100.00
2023-01-20T06:00:34.458Z,100.00
2023-01-20T06:03:03.799Z,100.00
2023-01-20T06:05:35.955Z,100.00
2023-01-20T06:08:05.206Z,100.00
2023-01-20T06:10:35.175Z,100.00
2023-01-20T06:13:05.750Z,100.00
2023-01-20T06:15:34.859Z,100.00
2023-01-20T06:18:04.258Z,100.00
2023-01-20T06:20:33.463Z,100.00
2023-01-20T06:23:02.601Z,100.00
2023-01-20T06:25:31.736Z,100.00
2023-01-20T06:28:01.800Z,100.00
2023-01-20T06:30:32.757Z,100.00
2023-01-20T06:33:02.063Z,100.00
2023-01-20T06:35:31.232Z,100.00
2023-01-20T06:38:00.301Z,100.00
2023-01-20T06:40:29.603Z,100.00
2023-01-20T06:42:59.535Z,100.00
2023-01-20T06:45:32.509Z,100.00
2023-01-20T06:48:03.181Z,100.00
2023-01-20T06:50:32.941Z,100.00
2023-01-20T06:53:02.171Z,100.00
2023-01-20T06:55:31.686Z,100.00
2023-01-20T06:58:00.888Z,100.00
2023-01-20T07:00:32.579Z,100.00
2023-01-20T07:03:03.572Z,100.00
2023-01-20T07:05:33.012Z,100.00
2023-01-20T07:08:02.126Z,100.00
2023-01-20T07:10:31.227Z,100.00
2023-01-20T07:13:00.371Z,100.00
2023-01-20T07:15:29.426Z,100.00
2023-01-20T07:17:59.799Z,100.00
2023-01-20T07:20:30.340Z,100.00
2023-01-20T07:23:01.080Z,100.00
2023-01-20T07:25:30.139Z,100.00
2023-01-20T07:27:59.415Z,100.00
2023-01-20T07:30:28.777Z,100.00
2023-01-20T07:32:57.937Z,100.00
2023-01-20T07:35:27.119Z,100.00
2023-01-20T07:37:57.568Z,100.00
2023-01-20T07:40:26.633Z,100.00
2023-01-20T07:42:55.823Z,100.00
2023-01-20T07:45:24.997Z,100.00
2023-01-20T07:47:57.272Z,100.00
2023-01-20T07:50:26.400Z,100.00
2023-01-20T07:52:55.622Z,100.00
2023-01-20T07:55:26.139Z,100.00
2023-01-20T07:57:56.174Z,100.00
2023-01-20T08:00:25.766Z,100.00
2023-01-20T08:02:54.991Z,100.00
2023-01-20T08:05:24.147Z,100.00
2023-01-20T08:07:53.749Z,100.00
2023-01-20T08:10:23.120Z,100.00
2023-01-20T08:12:53.680Z,100.00
2023-01-20T08:15:22.760Z,100.00
2023-01-20T08:17:55.185Z,100.00
2023-01-20T08:20:24.500Z,100.00
2023-01-20T08:22:53.824Z,100.00
2023-01-20T08:25:22.919Z,100.00
2023-01-20T08:27:53.351Z,100.00
2023-01-20T08:30:22.687Z,100.00
2023-01-20T08:32:52.119Z,100.00
2023-01-20T08:35:24.065Z,100.00
2023-01-20T08:37:53.198Z,100.00
2023-01-20T08:40:22.523Z,100.00
2023-01-20T08:42:53.133Z,100.00
2023-01-20T08:45:22.499Z,100.00
2023-01-20T08:47:51.876Z,100.00
2023-01-20T08:50:22.738Z,100.00
2023-01-20T08:52:51.823Z,100.00
2023-01-20T08:55:21.141Z,100.00
2023-01-20T08:57:50.423Z,100.00
2023-01-20T09:00:22.396Z,100.00
2023-01-20T09:02:51.544Z,100.00
2023-01-20T09:05:22.497Z,100.00
2023-01-20T09:07:51.644Z,100.00
2023-01-20T09:10:21.223Z,100.00
2023-01-20T09:12:50.385Z,100.00
2023-01-20T09:15:21.141Z,100.00
2023-01-20T09:17:50.283Z,100.00
2023-01-20T09:20:19.882Z,100.00
2023-01-20T09:22:48.982Z,100.00
2023-01-20T09:25:19.238Z,100.00
2023-01-20T09:27:48.355Z,100.00
2023-01-20T09:30:18.669Z,100.00
2023-01-20T09:32:53.214Z,100.00
2023-01-20T09:35:22.335Z,100.00
2023-01-20T09:38:08.951Z,100.00
2023-01-20T09:41:07.568Z,100.00
2023-01-20T09:43:57.894Z,100.00
2023-01-20T09:47:10.129Z,100.00
2023-01-20T09:50:09.180Z,100.00
2023-01-20T09:52:57.060Z,100.00
2023-01-20T09:55:31.843Z,100.00
2023-01-20T09:58:13.002Z,100.00
2023-01-20T10:00:47.978Z,100.00
2023-01-20T10:03:25.542Z,100.00
2023-01-20T10:06:00.888Z,100.00
2023-01-20T10:08:35.943Z,100.00
2023-01-20T10:11:11.326Z,100.00
2023-01-20T10:13:47.676Z,100.00
2023-01-20T10:16:28.710Z,100.00
2023-01-20T10:19:04.086Z,100.00
2023-01-20T10:21:41.861Z,100.00
2023-01-20T10:24:16.384Z,100.00
2023-01-20T10:26:52.035Z,100.00
2023-01-20T10:29:29.553Z,100.00
2023-01-20T10:32:02.476Z,100.00
2023-01-20T10:34:43.146Z,100.00
2023-01-20T10:37:15.412Z,100.00
2023-01-20T10:39:51.051Z,100.00
2023-01-20T10:42:21.753Z,100.00
2023-01-20T10:44:53.442Z,100.00
2023-01-20T10:47:44.982Z,100.00
2023-01-20T10:50:47.539Z,100.00
2023-01-20T10:53:43.615Z,100.00
2023-01-20T10:56:32.989Z,100.00
2023-01-20T10:59:10.475Z,100.00
2023-01-20T11:01:40.764Z,100.00
2023-01-20T11:04:20.268Z,100.00
2023-01-20T11:06:57.569Z,100.00
2023-01-20T11:09:37.650Z,100.00
2023-01-20T11:12:13.807Z,100.00
2023-01-20T11:14:43.951Z,100.00
2023-01-20T11:17:17.377Z,100.00
2023-01-20T11:19:51.596Z,100.00
2023-01-20T11:22:30.577Z,100.00
2023-01-20T11:25:04.174Z,100.00
2023-01-20T11:27:45.058Z,100.00
2023-01-20T11:30:27.378Z,100.00
2023-01-20T11:33:18.602Z,100.00
2023-01-20T11:36:02.373Z,100.00
2023-01-20T11:38:34.145Z,100.00
2023-01-20T11:41:05.281Z,100.00
2023-01-20T11:43:38.646Z,100.00
2023-01-20T11:46:16.361Z,100.00
2023-01-20T11:48:45.969Z,100.00
2023-01-20T11:51:26.032Z,100.00
2023-01-20T11:54:09.475Z,100.00
2023-01-20T11:56:44.509Z,100.00
2023-01-20T11:59:28.981Z,100.00
2023-01-20T12:02:21.102Z,100.00
2023-01-20T12:05:09.554Z,100.00
2023-01-20T12:07:44.237Z,100.00
2023-01-20T12:10:18.766Z,100.00
2023-01-20T12:12:54.199Z,100.00
2023-01-20T12:15:26.638Z,100.00
2023-01-20T12:18:00.994Z,100.00
2023-01-20T12:20:53.532Z,100.00
2023-01-20T12:23:39.307Z,100.00
2023-01-20T12:26:11.907Z,100.00
2023-01-20T12:28:58.654Z,100.00
2023-01-20T12:31:28.411Z,100.00
2023-01-20T12:34:03.915Z,100.00
2023-01-20T12:36:59.236Z,100.00
2023-01-20T12:39:40.847Z,100.00
2023-01-20T12:42:56.435Z,100.00
2023-01-20T12:45:46.548Z,100.00
2023-01-20T12:48:33.483Z,100.00
2023-01-20T12:51:20.899Z,100.00
2023-01-20T12:54:27.137Z,100.00
2023-01-20T12:57:08.952Z,100.00
2023-01-20T12:59:48.635Z,100.00
2023-01-20T13:02:53.614Z,100.00
2023-01-20T13:05:49.193Z,100.00
2023-01-20T13:08:24.581Z,100.00
2023-01-20T13:11:08.558Z,100.00
2023-01-20T13:13:56.886Z,100.00
2023-01-20T13:16:40.421Z,100.00
2023-01-20T13:19:17.752Z,100.00
2023-01-20T13:21:56.561Z,100.00
2023-01-20T13:24:33.365Z,100.00
2023-01-20T13:27:04.073Z,100.00
2023-01-20T13:29:53.794Z,100.00
2023-01-20T13:32:45.500Z,100.00
2023-01-20T13:35:49.857Z,100.00
2023-01-20T13:38:23.280Z,100.00
2023-01-20T13:40:56.176Z,100.00
2023-01-20T13:43:49.277Z,100.00
2023-01-20T13:46:50.265Z,100.00
2023-01-20T13:49:50.354Z,100.00
2023-01-20T13:53:16.968Z,100.00
2023-01-20T13:56:02.817Z,100.00
2023-01-20T13:58:34.617Z,100.00
2023-01-20T14:01:06.332Z,100.00
2023-01-20T14:03:39.471Z,100.00
2023-01-20T14:06:24.100Z,100.00
2023-01-20T14:08:56.631Z,100.00
2023-01-20T14:11:29.321Z,100.00
2023-01-20T14:14:01.907Z,100.00
2023-01-20T14:16:40.951Z,100.00
2023-01-20T14:19:23.435Z,100.00
2023-01-20T14:21:56.260Z,100.00
2023-01-20T14:24:32.473Z,100.00
2023-01-20T14:27:11.191Z,100.00
2023-01-20T14:29:42.135Z,100.00
2023-01-20T14:32:23.555Z,100.00
2023-01-20T14:34:56.687Z,100.00
2023-01-20T14:37:29.928Z,100.00
2023-01-20T14:40:07.978Z,100.00
2023-01-20T14:42:38.832Z,100.00
2023-01-20T14:45:20.302Z,100.00
2023-01-20T14:47:51.438Z,100.00
2023-01-20T14:50:22.972Z,100.00
2023-01-20T14:52:52.294Z,100.00
2023-01-20T14:55:35.693Z,100.00
2023-01-20T14:58:09.833Z,95.87
2023-01-20T15:00:44.751Z,94.90
2023-01-20T15:03:21.840Z,89.05
2023-01-20T15:05:58.219Z,94.44
2023-01-20T15:08:29.948Z,88.25
2023-01-20T15:11:26.037Z,91.79
2023-01-20T15:14:13.587Z,96.40
2023-01-20T15:16:50.301Z,92.48
2023-01-20T15:19:46.274Z,89.00
2023-01-20T15:22:23.260Z,88.89
2023-01-20T15:24:56.287Z,94.21
2023-01-20T15:27:33.534Z,92.55
2023-01-20T15:30:21.178Z,92.82
2023-01-20T15:32:51.203Z,89.07
2023-01-20T15:35:25.934Z,90.00
2023-01-20T15:37:55.760Z,91.88
2023-01-20T15:40:26.975Z,88.16
2023-01-20T15:42:57.653Z,92.97
2023-01-20T15:45:26.961Z,90.48
2023-01-20T15:47:56.501Z,93.33
2023-01-20T15:50:26.998Z,90.29
2023-01-20T15:52:56.692Z,93.00
2023-01-20T15:55:29.007Z,95.08
2023-01-20T15:57:59.636Z,96.97
2023-01-20T16:00:30.816Z,93.70
2023-01-20T16:03:00.148Z,96.10
2023-01-20T16:05:29.606Z,94.76
2023-01-20T16:08:02.655Z,91.93
2023-01-20T16:10:31.893Z,91.54
2023-01-20T16:13:02.613Z,88.09
2023-01-20T16:15:31.884Z,90.41
2023-01-20T16:18:01.012Z,88.45
2023-01-20T16:20:30.240Z,88.89
2023-01-20T16:22:59.373Z,85.35
2023-01-20T16:25:29.012Z,89.27
2023-01-20T16:27:59.314Z,88.16
2023-01-20T16:30:30.176Z,86.67
2023-01-20T16:32:59.301Z,86.94
2023-01-20T16:35:28.643Z,87.04
2023-01-20T16:37:57.744Z,85.08
2023-01-20T16:40:26.813Z,85.17
2023-01-20T16:42:56.964Z,82.66
2023-01-20T16:45:30.203Z,84.15
2023-01-20T16:47:59.417Z,86.00
2023-01-20T16:50:28.633Z,87.71
2023-01-20T16:52:58.343Z,86.07
2023-01-20T16:55:28.032Z,81.96
2023-01-20T16:57:57.399Z,82.27
2023-01-20T17:00:26.566Z,84.12
2023-01-20T17:02:57.210Z,82.28
2023-01-20T17:05:28.530Z,76.84
2023-01-20T17:07:59.743Z,75.06
2023-01-20T17:10:32.335Z,78.26
2023-01-20T17:13:01.876Z,79.10
2023-01-20T17:15:30.963Z,78.70
2023-01-20T17:18:01.849Z,80.23
2023-01-20T17:20:32.501Z,78.23
2023-01-20T17:23:01.747Z,75.88
2023-01-20T17:25:31.011Z,76.19
2023-01-20T17:28:00.264Z,77.22
2023-01-20T17:30:29.741Z,77.63
2023-01-20T17:32:58.962Z,74.74
2023-01-20T17:35:29.860Z,72.85
2023-01-20T17:37:59.691Z,75.10
2023-01-20T17:40:29.169Z,76.19
2023-01-20T17:42:58.483Z,78.04
2023-01-20T17:45:29.423Z,77.97
2023-01-20T17:47:58.569Z,76.38
2023-01-20T17:50:30.867Z,77.61
2023-01-20T17:53:01.640Z,78.84
2023-01-20T17:55:33.951Z,77.16
2023-01-20T17:58:03.720Z,78.52
2023-01-20T18:00:33.034Z,79.63
2023-01-20T18:03:02.263Z,78.63
2023-01-20T18:05:35.345Z,76.84
2023-01-20T18:08:04.954Z,76.79
2023-01-20T18:10:34.398Z,73.90
2023-01-20T18:13:03.619Z,75.95
2023-01-20T18:15:33.171Z,74.53
2023-01-20T18:18:02.610Z,74.77
2023-01-20T18:20:33.787Z,76.48
2023-01-20T18:23:03.333Z,75.55
2023-01-20T18:25:32.587Z,75.94
2023-01-20T18:28:01.955Z,73.86
2023-01-20T18:30:32.631Z,73.92
2023-01-20T18:33:02.269Z,73.61
2023-01-20T18:35:35.649Z,71.74
2023-01-20T18:38:05.739Z,73.03
2023-01-20T18:40:35.307Z,71.74
2023-01-20T18:43:04.845Z,71.46
2023-01-20T18:45:34.252Z,70.96
2023-01-20T18:48:03.873Z,71.10
2023-01-20T18:50:34.853Z,69.36
2023-01-20T18:53:04.145Z,68.96
2023-01-20T18:55:34.430Z,69.90
2023-01-20T18:58:03.961Z,69.98
2023-01-20T19:00:33.281Z,70.80
2023-01-20T19:03:02.998Z,70.68
2023-01-20T19:05:34.759Z,71.93
2023-01-20T19:08:05.139Z,69.30
2023-01-20T19:10:34.764Z,68.72
2023-01-20T19:13:03.805Z,69.64
2023-01-20T19:15:33.786Z,69.76
2023-01-20T19:18:03.295Z,71.48
2023-01-20T19:20:33.953Z,70.51
2023-01-20T19:23:03.286Z,70.59
2023-01-20T19:25:32.669Z,70.44
2023-01-20T19:28:05.719Z,70.01
2023-01-20T19:30:35.258Z,70.69
2023-01-20T19:33:04.657Z,70.31
2023-01-20T19:35:35.607Z,70.65
2023-01-20T19:38:05.405Z,70.50
2023-01-20T19:40:35.569Z,70.91
2023-01-20T19:43:07.172Z,72.30
2023-01-20T19:45:45.859Z,72.60
2023-01-20T19:48:15.502Z,70.39
2023-01-20T19:50:47.042Z,71.31
2023-01-20T19:53:17.901Z,71.42
2023-01-20T19:55:47.574Z,72.26
2023-01-20T19:58:17.080Z,71.43
2023-01-20T20:00:46.627Z,68.65
2023-01-20T20:03:15.741Z,65.16
2023-01-20T20:05:46.476Z,67.36
2023-01-20T20:08:15.818Z,70.41
2023-01-20T20:10:45.504Z,68.01
2023-01-20T20:13:15.792Z,68.00
2023-01-20T20:15:45.425Z,66.58
2023-01-20T20:18:15.758Z,66.47
2023-01-20T20:20:47.605Z,67.13
2023-01-20T20:23:18.200Z,68.00
2023-01-20T20:25:52.137Z,67.87
2023-01-20T20:28:21.518Z,65.99
2023-01-20T20:30:51.151Z,67.73
2023-01-20T20:33:20.766Z,65.61
2023-01-20T20:35:51.507Z,66.58
2023-01-20T20:38:20.957Z,66.95
2023-01-20T20:40:50.077Z,68.44
2023-01-20T20:43:23.056Z,68.74
2023-01-20T20:45:53.066Z,67.85
2023-01-20T20:48:22.349Z,68.21
2023-01-20T20:50:53.346Z,67.93
2023-01-20T20:53:23.190Z,69.44
2023-01-20T20:55:55.379Z,68.28
2023-01-20T20:58:24.761Z,68.29
2023-01-20T21:00:53.943Z,70.18
2023-01-20T21:03:26.393Z,69.58
2023-01-20T21:05:57.903Z,69.28
2023-01-20T21:08:27.454Z,68.13
2023-01-20T21:11:01.063Z,67.85
2023-01-20T21:13:31.427Z,68.92
2023-01-20T21:16:03.791Z,66.90
2023-01-20T21:18:34.249Z,66.41
2023-01-20T21:21:08.705Z,66.96
2023-01-20T21:23:40.681Z,68.21
2023-01-20T21:26:14.121Z,67.73
2023-01-20T21:28:45.608Z,68.97
2023-01-20T21:31:17.225Z,68.26
2023-01-20T21:33:46.894Z,67.86
2023-01-20T21:36:17.680Z,69.62
2023-01-20T21:38:46.782Z,69.08
2023-01-20T21:41:18.380Z,66.91
2023-01-20T21:44:06.645Z,66.32
2023-01-20T21:46:39.615Z,65.91
2023-01-20T21:49:27.332Z,67.13
2023-01-20T21:52:17.668Z,67.29
2023-01-20T21:54:47.054Z,67.89
2023-01-20T21:57:16.497Z,66.63
2023-01-20T21:59:46.006Z,67.27
2023-01-20T22:02:16.403Z,66.56
2023-01-20T22:04:46.929Z,67.01
2023-01-20T22:07:17.627Z,68.86
2023-01-20T22:09:46.881Z,70.27
2023-01-20T22:12:16.501Z,70.07
2023-01-20T22:14:45.709Z,71.95
2023-01-20T22:17:15.025Z,69.21
2023-01-20T22:19:44.624Z,68.26
2023-01-20T22:22:15.273Z,67.65
2023-01-20T22:24:45.984Z,68.14
2023-01-20T22:27:15.223Z,69.56
2023-01-20T22:29:44.433Z,69.55
2023-01-20T22:32:13.627Z,71.02
2023-01-20T22:34:43.357Z,69.13
2023-01-20T22:37:12.644Z,70.31
2023-01-20T22:39:43.642Z,67.98
2023-01-20T22:42:14.148Z,68.07
2023-01-20T22:44:43.251Z,68.44
2023-01-20T22:47:12.567Z,68.67
2023-01-20T22:49:41.817Z,68.26
2023-01-20T22:52:10.952Z,68.97
2023-01-20T22:54:40.160Z,69.04
2023-01-20T22:57:09.248Z,71.07
2023-01-20T22:59:39.781Z,69.92
2023-01-20T23:02:09.791Z,70.31
2023-01-20T23:04:39.038Z,69.03
2023-01-20T23:07:08.578Z,69.92
2023-01-20T23:09:37.707Z,69.42
2023-01-20T23:12:07.527Z,70.01
2023-01-20T23:14:54.358Z,69.76
2023-01-20T23:17:24.922Z,69.68
2023-01-20T23:19:54.575Z,70.03
2023-01-20T23:22:25.415Z,70.46
2023-01-20T23:24:54.515Z,70.29
2023-01-20T23:27:23.576Z,70.40
2023-01-20T23:29:53.040Z,72.35
2023-01-20T23:32:27.690Z,72.15
2023-01-20T23:34:56.974Z,73.15
2023-01-20T23:37:32.082Z,74.32
2023-01-20T23:40:01.847Z,77.37
2023-01-20T23:42:36.845Z,79.38
2023-01-20T23:45:08.007Z,80.72
2023-01-20T23:47:38.623Z,83.82
2023-01-20T23:50:09.198Z,86.86
2023-01-20T23:52:38.320Z,89.76
2023-01-20T23:55:10.951Z,92.25
2023-01-20T23:57:43.135Z,94.13
